Flight Track Log - Related Links

Times and Time Zones

All times are in EDT time to prevent confusion due to time zone crossing. See the AAR571 flight status page for this flight to view local times or setup timezone preferences in your user account.

Time Position Orientation Groundspeed Altitude Reporting Facility
EDT Latitude Longitude Course Direction KTS MPH feet Rate Location/Type
Wed 03:08:00 AM 43.3224 130.6135 213° Southwest  Level Estimated
Wed 03:09:00 AM 43.2537 130.5595 210° Southwest  Level Estimated
Wed 03:10:00 AM 43.1849 130.5055 210° Southwest  Level Estimated
Wed 03:11:00 AM 43.1161 130.4517 210° Southwest  Level Estimated
Wed 03:12:00 AM 43.0473 130.3980 210° Southwest  Level Estimated
Wed 03:13:00 AM 42.9785 130.3444 210° Southwest  Level Estimated
Wed 03:14:00 AM 42.9096 130.2910 210° Southwest  Level Estimated
Wed 03:15:00 AM 42.8408 130.2376 210° Southwest  Level Estimated
Wed 03:16:00 AM 42.7719 130.1844 210° Southwest  Level Estimated
Wed 03:17:00 AM 42.7029 130.1313 210° Southwest  Level Estimated
Wed 03:18:00 AM 42.6340 130.0783 209° Southwest  Level Estimated
Wed 03:19:00 AM 42.5650 130.0254 209° Southwest  Level Estimated
Wed 03:20:00 AM 42.4960 129.9727 209° Southwest  Level Estimated
Wed 03:21:00 AM 42.4269 129.9200 209° Southwest  Level Estimated
Wed 03:22:00 AM 42.3579 129.8675 209° Southwest  Level Estimated
Wed 03:23:00 AM 42.2888 129.8151 209° Southwest  Level Estimated
Wed 03:24:00 AM 42.2197 129.7628 209° Southwest  Level Estimated
Wed 03:25:00 AM 42.1506 129.7106 209° Southwest  Level Estimated
Wed 03:26:00 AM 42.0814 129.6586 209° Southwest  Level Estimated
Wed 03:27:00 AM 42.0123 129.6066 209° Southwest  Level Estimated
Wed 03:28:00 AM 41.9431 129.5548 209° Southwest  Level Estimated
Wed 03:29:00 AM 41.8739 129.5030 209° Southwest  Level Estimated
Wed 03:30:00 AM 41.8046 129.4514 209° Southwest  Level Estimated
Wed 03:31:00 AM 41.7354 129.3999 209° Southwest  Level Estimated
Wed 03:32:00 AM 41.6661 129.3485 209° Southwest  Level Estimated
Wed 03:33:00 AM 41.5967 129.2973 209° Southwest  Level Estimated
Wed 03:34:00 AM 41.5274 129.2461 209° Southwest  Level Estimated
Wed 03:35:00 AM 41.4581 129.1950 209° Southwest  Level Estimated
Wed 03:36:00 AM 41.3887 129.1441 209° Southwest  Level Estimated
Wed 03:37:00 AM 41.3193 129.0932 209° Southwest  Level Estimated
Wed 03:38:00 AM 41.2499 129.0425 209° Southwest  Level Estimated
Wed 03:39:00 AM 41.1804 128.9919 209° Southwest  Level Estimated
Wed 03:40:00 AM 41.1109 128.9413 209° Southwest  Level Estimated
Wed 03:41:00 AM 41.0415 128.8909 209° Southwest  Level Estimated
Wed 03:42:00 AM 40.9719 128.8406 209° Southwest  Level Estimated
Wed 03:43:00 AM 40.9024 128.7904 209° Southwest  Level Estimated
Wed 03:44:00 AM 40.8329 128.7403 209° Southwest  Level Estimated
Wed 03:45:00 AM 40.7633 128.6903 209° Southwest  Level Estimated
Wed 03:46:00 AM 40.6937 128.6404 209° Southwest  Level Estimated
Wed 03:47:00 AM 40.6241 128.5907 208° Southwest  Level Estimated
Wed 03:48:00 AM 40.5544 128.5410 208° Southwest  Level Estimated
Wed 03:49:00 AM 40.4847 128.4914 208° Southwest  Level Estimated
Wed 03:50:00 AM 40.4151 128.4419 208° Southwest  Level Estimated
Wed 03:51:00 AM 40.3454 128.3926 208° Southwest  Level Estimated
Wed 03:52:00 AM 40.2756 128.3433 208° Southwest  Level Estimated
Wed 03:53:00 AM 40.2059 128.2941 208° Southwest  Level Estimated
Wed 03:54:00 AM 40.1361 128.2451 208° Southwest  Level Estimated
Wed 03:55:00 AM 40.0663 128.1961 208° Southwest  Level Estimated
Wed 03:56:00 AM 39.9965 128.1472 208° Southwest  Level Estimated
Wed 03:57:00 AM 39.9267 128.0985 208° Southwest  Level Estimated
Wed 03:58:00 AM 39.8568 128.0498 208° Southwest  Level Estimated
Wed 03:59:00 AM 39.7870 128.0012 208° Southwest  Level Estimated
Wed 04:00:00 AM 39.7171 127.9528 208° Southwest  Level Estimated
Wed 04:01:00 AM 39.6472 127.9044 208° Southwest  Level Estimated
Wed 04:02:00 AM 39.5772 127.8561 208° Southwest  Level Estimated
Wed 04:03:00 AM 39.5073 127.8079 208° Southwest  Level Estimated
Wed 04:04:00 AM 39.4373 127.7599 208° Southwest  Level Estimated
Wed 04:05:00 AM 39.3673 127.7119 208° Southwest  Level Estimated
Wed 04:06:00 AM 39.2973 127.6640 208° Southwest  Level Estimated
Wed 04:07:00 AM 39.2273 127.6162 208° Southwest  Level Estimated
Wed 04:08:00 AM 39.1572 127.5685 208° Southwest  Level Estimated
Wed 04:09:00 AM 39.0872 127.5209 208° Southwest  Level Estimated
Wed 04:10:00 AM 39.0171 127.4734 208° Southwest  Level Estimated
Wed 04:11:00 AM 38.9470 127.4260 208° Southwest  Level Estimated
Wed 04:12:00 AM 38.8768 127.3787 208° Southwest  Level Estimated
Wed 04:13:00 AM 38.8067 127.3315 208° Southwest  Level Estimated
Wed 04:14:00 AM 38.7365 127.2843 208° Southwest  Level Estimated
Wed 04:15:00 AM 38.6664 127.2373 208° Southwest  Level Estimated
Wed 04:16:00 AM 38.5962 127.1903 208° Southwest  Level Estimated
Wed 04:17:00 AM 38.5259 127.1435 208° Southwest  Level Estimated
Wed 04:18:00 AM 38.4557 127.0967 208° Southwest  Level Estimated
Wed 04:19:00 AM 38.3854 127.0500 208° Southwest  Level Estimated
Wed 04:20:00 AM 38.3152 127.0035 207° Southwest  Level Estimated
Wed 04:21:00 AM 38.2449 126.9570 207° Southwest  Level Estimated
Wed 04:22:00 AM 38.1746 126.9106 207° Southwest  Level Estimated
Wed 04:23:00 AM 38.1042 126.8643 207° Southwest  Level Estimated
Wed 04:24:00 AM 38.0339 126.8180 207° Southwest  Level Estimated
Wed 04:25:00 AM 37.9635 126.7719 207° Southwest  Level Estimated
Wed 04:26:00 AM 37.8931 126.7259 207° Southwest  Level Estimated
Wed 04:27:00 AM 37.8227 126.6799 207° Southwest  Level Estimated
Wed 04:28:00 AM 37.7523 126.6340 207° Southwest  Level Estimated
Wed 04:29:00 AM 37.6819 126.5882 207° Southwest  Level Estimated
Wed 04:30:00 AM 37.6114 126.5425 207° Southwest  Level Estimated
Wed 04:31:00 AM 37.5410 126.4969 207° Southwest  Level Estimated
Wed 04:32:00 AM 37.4705 126.4514 207° Southwest  Level Estimated
Wed 04:33:00 AM 37.4691 126.4505 207° Southwest  Level Estimated
Wed 04:34:00 AM 37.4691 126.4505 335° Northwest  Level Estimated
Wed 04:35:00 AM 37.4691 126.4505 335° Northwest  Level Estimated
Wed 04:36:00 AM 37.4691 126.4505 335° Northwest  Level Estimated
Wed 04:37:00 AM 37.4691 126.4505 335° Northwest  Level Estimated
Wed 04:38:00 AM 37.4691 126.4505 335° Northwest  Level Estimated
Wed 04:39:00 AM 37.4691 126.4505 335° Northwest  Level Estimated
Wed 04:40:00 AM 37.4691 126.4505 335° Northwest  Level Estimated
Wed 04:41:00 AM 37.4691 126.4505 335° Northwest  Level Estimated
Wed 04:42:00 AM 37.4691 126.4505 335° Northwest  Level Estimated
Wed 04:43:00 AM 37.4691 126.4505 335° Northwest  Level Estimated
Wed 04:44:00 AM 37.4691 126.4505 335° Northwest  Level Estimated
Wed 04:45:00 AM 37.4691 126.4505 335° Northwest  Level Estimated
Wed 04:46:00 AM 37.4691 126.4505 335° Northwest  Level Estimated

Login

Don't have an account? Register now (free) for customized features, flight alerts, and more!